Portada
METAR-TAF:

METAR-TAF

Aeroports :

Taunton Municipal Airport (King Field)

Taunton, Massachusetts, Estats Units d'Amèrica

latitud: 41-52-32N, longitud: 071-01-16W, altitud: 13 m

Observació

L'informe es va fer fa 19 minuts, a les 10:52 UTC
Vent 3 kt del Nord/Nord-Oest
Temperatura 19°C
Humitat 88%
Pressió 1013 hPa
Visibilitat: 16.1 km
Cel cobert a una alçada de 1000 ft

METAR: KTAN 191052Z AUTO 33003KT 10SM OVC010 19/17 A2990 RMK AO2 SLP125 T01940172

Hora: 07:11 (11:11 UTC)


TAF: manca

Observacions i pronòstics meteorològics de més de 4000 aeroports (METAR i TAF).

Les estacions disponibles són els punts grocs i vermells al mapa.

Posi el ratolí al punt desitjat per veure el nom de l'estació.

Feu clic per veure les observacions i els pronòstics meteorològics.

Per canviar el mapa: feu clic els botons verds amb una creu de color negre per apropar; al botó verd amb un guió per allunyar la imatge; o en les fletxes verdes per a mapes adjacents.


METAR-TAF: